Time;durP1;ratioP1;P1;durP2;ratioP2;P2;SDS_P1;SDS_P2;PMS_P1;PMS_P2;Temp;Humidity;BMP_temperature;BMP_pressure;BME280_temperature;BME280_humidity;BME280_pressure;Samples;Min_cycle;Max_cycle;Signal;HPM_P1;HPM_P2
2022/05/29 00:00:42;;;;;;;9.90;4.93;;;10.10;99.90;;;;;;4874142;29;20045;-82
2022/05/29 00:03:08;;;;;;;10.77;4.40;;;10.10;99.90;;;;;;4854484;29;20037;-82
2022/05/29 00:05:37;;;;;;;12.27;4.20;;;10.20;99.90;;;;;;4851651;29;20055;-81
2022/05/29 00:08:05;;;;;;;14.50;5.07;;;10.20;99.90;;;;;;4861845;29;20044;-82
2022/05/29 00:10:35;;;;;;;14.97;4.90;;;10.20;99.90;;;;;;4860208;29;20049;-82
2022/05/29 00:13:00;;;;;;;13.53;4.47;;;10.20;99.90;;;;;;4879351;29;20048;-82
2022/05/29 00:15:26;;;;;;;14.27;4.87;;;10.20;99.90;;;;;;4848588;29;20403;-81
2022/05/29 00:17:52;;;;;;;13.30;4.23;;;10.20;99.90;;;;;;4860405;29;20649;-81
2022/05/29 00:20:18;;;;;;;13.53;4.90;;;10.20;99.90;;;;;;4862051;29;20478;-81
2022/05/29 00:22:44;;;;;;;12.43;5.20;;;10.20;99.90;;;;;;4868379;29;20092;-81
2022/05/29 00:25:11;;;;;;;11.20;4.50;;;10.20;99.90;;;;;;4868701;29;20041;-82
2022/05/29 00:27:37;;;;;;;14.43;4.70;;;10.20;99.90;;;;;;4859677;29;20051;-81
2022/05/29 00:30:05;;;;;;;10.80;4.70;;;10.20;99.90;;;;;;4877474;29;20049;-81
2022/05/29 00:32:30;;;;;;;13.10;4.40;;;10.20;99.90;;;;;;4865342;29;20043;-81
2022/05/29 00:34:56;;;;;;;18.53;5.23;;;10.20;99.90;;;;;;4863880;29;20040;-82
2022/05/29 00:37:22;;;;;;;13.63;5.17;;;10.20;99.90;;;;;;4859444;29;20045;-82
2022/05/29 00:39:50;;;;;;;10.27;4.10;;;10.10;99.90;;;;;;4866435;29;20036;-81
2022/05/29 00:42:21;;;;;;;10.23;4.80;;;10.10;99.90;;;;;;4867291;29;20406;-82
2022/05/29 00:44:47;;;;;;;13.27;5.03;;;10.00;99.90;;;;;;4866027;29;20077;-82
2022/05/29 00:47:19;;;;;;;10.23;4.23;;;10.00;99.90;;;;;;4858546;29;20048;-82
2022/05/29 00:49:47;;;;;;;11.27;4.55;;;10.00;99.90;;;;;;4873664;29;20052;-82
2022/05/29 00:52:19;;;;;;;13.53;4.90;;;10.10;99.90;;;;;;4865535;29;20105;-82
2022/05/29 00:54:53;;;;;;;11.83;4.43;;;10.00;99.90;;;;;;4865642;29;20049;-82
2022/05/29 00:57:37;;;;;;;10.20;4.47;;;10.00;99.90;;;;;;4852016;29;20499;-82
2022/05/29 01:00:08;;;;;;;11.43;4.00;;;10.00;99.90;;;;;;4860244;29;20101;-82
2022/05/29 01:02:34;;;;;;;13.75;4.40;;;9.90;99.90;;;;;;4854623;29;20041;-82
2022/05/29 01:05:03;;;;;;;13.73;4.47;;;9.90;99.90;;;;;;4868693;29;20083;-82
2022/05/29 01:07:29;;;;;;;13.17;4.90;;;9.90;99.90;;;;;;4863737;29;20169;-82
2022/05/29 01:09:55;;;;;;;10.50;4.00;;;9.90;99.90;;;;;;4862645;29;20102;-82
2022/05/29 01:12:31;;;;;;;12.13;4.33;;;9.90;99.90;;;;;;4839851;29;20128;-82
2022/05/29 01:15:19;;;;;;;17.37;4.30;;;9.90;99.90;;;;;;4860264;29;20041;-82
2022/05/29 01:18:06;;;;;;;14.27;4.50;;;9.80;99.90;;;;;;4861080;29;20052;-81
2022/05/29 01:20:38;;;;;;;12.60;4.50;;;9.80;99.90;;;;;;4867311;29;20037;-81
2022/05/29 01:23:31;;;;;;;11.60;3.93;;;9.80;99.90;;;;;;4850668;29;20037;-81
2022/05/29 01:26:07;;;;;;;16.43;4.27;;;9.80;99.90;;;;;;4866115;29;20127;-82
2022/05/29 01:28:50;;;;;;;15.03;4.30;;;9.80;99.90;;;;;;4870193;29;20053;-82
2022/05/29 01:31:50;;;;;;;16.63;4.87;;;9.80;99.90;;;;;;4877454;29;20052;-82
2022/05/29 01:34:24;;;;;;;18.23;4.90;;;9.80;99.90;;;;;;4877888;29;20047;-82
2022/05/29 01:36:59;;;;;;;13.57;3.80;;;9.70;99.90;;;;;;4875503;29;20045;-82
2022/05/29 01:39:38;;;;;;;9.37;4.00;;;9.70;99.90;;;;;;4859152;29;20057;-82
2022/05/29 01:42:27;;;;;;;14.03;4.03;;;9.70;99.90;;;;;;4871619;29;20052;-83
2022/05/29 01:44:53;;;;;;;14.83;5.10;;;9.70;99.90;;;;;;4863791;29;20044;-83
2022/05/29 01:47:46;;;;;;;14.07;4.53;;;9.70;99.90;;;;;;4864929;29;20132;-82
2022/05/29 01:50:19;;;;;;;12.77;4.77;;;9.70;99.90;;;;;;4874755;29;20049;-82
2022/05/29 01:53:00;;;;;;;13.90;4.87;;;9.70;99.90;;;;;;4863603;29;20503;-82
2022/05/29 01:55:33;;;;;;;14.30;5.27;;;9.70;99.90;;;;;;4850472;29;20055;-82
2022/05/29 01:58:12;;;;;;;13.47;4.97;;;9.60;99.90;;;;;;4866064;29;20046;-83
2022/05/29 02:00:38;;;;;;;10.70;4.10;;;9.60;99.90;;;;;;4871688;29;20415;-82
2022/05/29 02:03:13;;;;;;;9.17;4.00;;;9.60;99.90;;;;;;4861511;29;20041;-82
2022/05/29 02:06:10;;;;;;;13.73;4.23;;;9.60;99.90;;;;;;4849076;29;20040;-82
2022/05/29 02:08:40;;;;;;;10.73;4.33;;;9.60;99.90;;;;;;4875280;29;21415;-84
2022/05/29 02:11:10;;;;;;;16.57;5.03;;;9.60;99.90;;;;;;4860344;29;20131;-83
2022/05/29 02:13:44;;;;;;;12.23;4.47;;;9.60;99.90;;;;;;4873707;29;20048;-82
2022/05/29 02:16:33;;;;;;;13.37;4.80;;;9.60;99.90;;;;;;4863878;29;20063;-82
2022/05/29 02:18:58;;;;;;;15.93;4.13;;;9.60;99.90;;;;;;4861873;29;20064;-83
2022/05/29 02:21:50;;;;;;;11.33;4.40;;;9.50;99.90;;;;;;4855667;29;20129;-81
2022/05/29 02:24:20;;;;;;;16.27;4.63;;;9.60;99.90;;;;;;4875829;29;20049;-82
2022/05/29 02:27:01;;;;;;;13.40;4.27;;;9.60;99.90;;;;;;4870449;29;20052;-82
2022/05/29 02:29:28;;;;;;;12.57;4.60;;;9.60;99.90;;;;;;4867222;29;20096;-82
2022/05/29 02:32:24;;;;;;;11.43;4.63;;;9.50;99.90;;;;;;4841621;29;20064;-82
2022/05/29 02:35:19;;;;;;;13.00;4.73;;;9.50;99.90;;;;;;4876962;29;20156;-81
2022/05/29 02:37:55;;;;;;;16.37;4.70;;;9.50;99.90;;;;;;4866842;29;20045;-82
2022/05/29 02:40:46;;;;;;;15.87;5.00;;;9.60;99.90;;;;;;4850105;29;20089;-82
2022/05/29 02:43:30;;;;;;;12.93;4.67;;;9.60;99.90;;;;;;4854188;29;20049;-82
2022/05/29 02:46:28;;;;;;;14.70;4.63;;;9.60;99.90;;;;;;4873679;29;20069;-82
2022/05/29 02:49:03;;;;;;;10.50;4.90;;;9.60;99.90;;;;;;4861679;29;20509;-81
2022/05/29 02:51:38;;;;;;;14.00;4.67;;;9.60;99.90;;;;;;4873736;29;20049;-81
2022/05/29 02:54:04;;;;;;;11.63;4.70;;;9.60;99.90;;;;;;4862017;29;20065;-82
2022/05/29 02:56:30;;;;;;;15.53;4.83;;;9.60;99.90;;;;;;4853459;29;20148;-81
2022/05/29 02:58:58;;;;;;;16.30;5.27;;;9.60;99.90;;;;;;4846262;29;20711;-81
2022/05/29 03:01:44;;;;;;;12.30;4.90;;;9.60;99.90;;;;;;4857266;29;20044;-81
2022/05/29 03:04:30;;;;;;;12.83;4.90;;;9.60;99.90;;;;;;4889736;29;20057;-82
2022/05/29 03:07:14;;;;;;;10.50;4.87;;;9.60;99.90;;;;;;4861002;29;20415;-82
2022/05/29 03:10:03;;;;;;;12.80;5.17;;;9.50;99.90;;;;;;4876571;29;20049;-81
2022/05/29 03:12:42;;;;;;;13.50;4.60;;;9.50;99.90;;;;;;4870807;29;20061;-81
2022/05/29 03:15:45;;;;;;;17.97;5.30;;;9.50;99.90;;;;;;4856822;29;20492;-81
2022/05/29 03:18:38;;;;;;;14.70;5.13;;;9.60;99.90;;;;;;4855951;29;20136;-81
2022/05/29 03:21:33;;;;;;;11.90;4.83;;;9.50;99.90;;;;;;4857673;29;20072;-82
2022/05/29 03:24:25;;;;;;;12.27;4.60;;;9.50;99.90;;;;;;4868452;29;20045;-81
2022/05/29 03:27:22;;;;;;;15.95;5.57;;;9.50;99.90;;;;;;4865829;29;20042;-82
2022/05/29 03:29:54;;;;;;;13.03;5.10;;;9.50;99.90;;;;;;4864870;29;20045;-81
2022/05/29 03:32:21;;;;;;;12.13;4.63;;;9.60;99.90;;;;;;4861927;29;20503;-80
2022/05/29 03:34:46;;;;;;;12.63;4.73;;;9.50;99.90;;;;;;4861165;29;20128;-81
2022/05/29 03:37:12;;;;;;;12.03;4.03;;;9.50;99.90;;;;;;4859433;29;20146;-82
2022/05/29 03:39:38;;;;;;;14.03;5.00;;;9.60;99.90;;;;;;4863521;29;20051;-81
2022/05/29 03:42:05;;;;;;;11.57;4.67;;;9.60;99.90;;;;;;4867967;29;20484;-81
2022/05/29 03:44:32;;;;;;;11.27;4.60;;;9.60;99.90;;;;;;4849775;29;20072;-80
2022/05/29 03:46:57;;;;;;;12.20;5.23;;;9.50;99.90;;;;;;4878666;29;20380;-80
2022/05/29 03:49:24;;;;;;;12.13;4.80;;;9.50;99.90;;;;;;4849054;29;20131;-82
2022/05/29 03:51:50;;;;;;;15.30;4.87;;;9.60;99.90;;;;;;4860668;29;20352;-83
2022/05/29 03:54:16;;;;;;;15.90;5.07;;;9.60;99.90;;;;;;4851970;29;20053;-83
2022/05/29 03:56:42;;;;;;;13.57;5.20;;;9.60;99.90;;;;;;4845541;29;20154;-83
2022/05/29 03:59:08;;;;;;;11.87;4.40;;;9.60;99.90;;;;;;4858362;29;20060;-83
2022/05/29 04:01:35;;;;;;;10.57;4.43;;;9.60;99.90;;;;;;4846003;29;20033;-83
2022/05/29 04:04:01;;;;;;;12.60;4.43;;;9.70;99.90;;;;;;4865627;29;20052;-82
2022/05/29 04:06:28;;;;;;;12.20;4.60;;;9.60;99.90;;;;;;4860281;29;20081;-83
2022/05/29 04:14:27;;;;;;;10.83;4.53;;;9.60;99.90;;;;;;4872105;29;20559;-83
2022/05/29 04:16:52;;;;;;;13.77;4.20;;;9.70;99.90;;;;;;4854954;29;20060;-83
2022/05/29 04:19:19;;;;;;;11.80;3.87;;;9.70;99.90;;;;;;4870791;29;20050;-83
2022/05/29 04:21:46;;;;;;;10.37;3.80;;;9.70;99.90;;;;;;4852578;29;20049;-83
2022/05/29 04:24:12;;;;;;;12.67;3.77;;;9.70;99.90;;;;;;4868880;29;20463;-83
2022/05/29 04:26:38;;;;;;;14.87;4.17;;;9.70;99.90;;;;;;4860991;29;20049;-83
2022/05/29 04:29:05;;;;;;;11.30;3.67;;;9.70;99.90;;;;;;4857691;29;20041;-84
2022/05/29 04:31:32;;;;;;;11.77;3.90;;;9.70;99.90;;;;;;4865872;29;20087;-84
2022/05/29 04:33:58;;;;;;;15.80;4.17;;;9.70;99.90;;;;;;4863239;29;20049;-83
2022/05/29 04:36:24;;;;;;;12.13;5.00;;;9.70;99.90;;;;;;4871051;29;20045;-83
2022/05/29 04:38:51;;;;;;;13.27;4.00;;;9.70;99.90;;;;;;4844526;29;20064;-84
2022/05/29 04:41:19;;;;;;;11.97;3.73;;;9.80;99.90;;;;;;4843195;29;20069;-83
2022/05/29 04:43:45;;;;;;;12.27;3.10;;;9.80;99.90;;;;;;4856440;29;20453;-84
2022/05/29 04:46:11;;;;;;;16.43;4.00;;;9.80;99.90;;;;;;4864682;29;20205;-84
2022/05/29 04:48:37;;;;;;;12.07;3.33;;;9.80;99.90;;;;;;4842097;29;20530;-84
2022/05/29 04:51:06;;;;;;;10.53;3.57;;;9.80;99.90;;;;;;4861327;29;20045;-84
2022/05/29 04:53:32;;;;;;;16.17;3.70;;;9.90;99.90;;;;;;4863028;29;20045;-84
2022/05/29 04:55:59;;;;;;;12.40;4.00;;;9.90;99.90;;;;;;4862878;29;20060;-84
2022/05/29 04:58:27;;;;;;;10.30;3.50;;;9.90;99.90;;;;;;4847490;29;20041;-83
2022/05/29 05:01:02;;;;;;;11.23;3.77;;;9.90;99.90;;;;;;4854121;29;20650;-83
2022/05/29 05:03:29;;;;;;;12.53;3.87;;;9.90;99.90;;;;;;4853763;29;20689;-83
2022/05/29 05:05:55;;;;;;;14.23;4.00;;;9.90;99.90;;;;;;4866516;29;20145;-83
2022/05/29 05:08:21;;;;;;;10.03;3.60;;;10.00;99.90;;;;;;4851854;29;20076;-83
2022/05/29 05:10:47;;;;;;;14.60;3.67;;;10.00;99.90;;;;;;4858902;29;20078;-83
2022/05/29 05:13:13;;;;;;;8.30;3.30;;;10.00;99.90;;;;;;4849182;29;20091;-83
2022/05/29 05:15:39;;;;;;;9.90;3.10;;;10.00;99.90;;;;;;4864312;29;20538;-82
2022/05/29 05:18:05;;;;;;;10.60;3.13;;;10.00;99.90;;;;;;4860787;29;20060;-83
2022/05/29 05:20:31;;;;;;;13.83;3.43;;;9.90;99.90;;;;;;4869392;29;20036;-84
2022/05/29 05:22:57;;;;;;;10.57;3.40;;;9.90;99.90;;;;;;4859965;29;20703;-83
2022/05/29 05:25:23;;;;;;;12.17;3.70;;;9.90;99.90;;;;;;4860631;29;20105;-84
2022/05/29 05:27:49;;;;;;;9.50;3.03;;;9.90;99.90;;;;;;4882184;29;20443;-83
2022/05/29 05:30:15;;;;;;;12.63;3.00;;;9.80;99.90;;;;;;4849968;29;20100;-83
2022/05/29 05:32:40;;;;;;;9.67;2.80;;;9.80;99.90;;;;;;4848803;29;20048;-85
2022/05/29 05:35:07;;;;;;;9.10;2.70;;;9.80;99.90;;;;;;4867396;29;20045;-84
2022/05/29 05:37:38;;;;;;;10.50;2.97;;;9.90;99.90;;;;;;4857215;29;20044;-84
2022/05/29 05:40:09;;;;;;;11.67;3.53;;;9.90;99.90;;;;;;4863911;29;20041;-84
2022/05/29 05:42:35;;;;;;;8.43;2.97;;;9.90;99.90;;;;;;4878634;29;20045;-84
2022/05/29 05:45:00;;;;;;;8.30;3.33;;;10.00;99.90;;;;;;4848521;29;20047;-84
2022/05/29 05:47:26;;;;;;;13.13;2.87;;;10.10;99.90;;;;;;4880047;29;20048;-84
2022/05/29 05:49:52;;;;;;;14.93;3.80;;;10.10;99.90;;;;;;4858670;29;20102;-84
2022/05/29 05:52:18;;;;;;;7.40;2.90;;;10.20;99.90;;;;;;4884214;29;20055;-84
2022/05/29 05:54:45;;;;;;;10.37;3.07;;;10.20;99.90;;;;;;4864680;29;20033;-84
2022/05/29 05:57:11;;;;;;;11.80;2.93;;;10.20;99.90;;;;;;4876698;29;20469;-83
2022/05/29 05:59:38;;;;;;;13.73;3.90;;;10.30;99.90;;;;;;4853364;29;20127;-83
2022/05/29 06:02:09;;;;;;;9.73;3.00;;;10.30;99.90;;;;;;4866823;29;20037;-83
2022/05/29 06:04:36;;;;;;;10.47;3.43;;;10.40;99.90;;;;;;4878775;29;20040;-84
2022/05/29 06:07:02;;;;;;;12.30;3.20;;;10.40;99.90;;;;;;4884913;29;20049;-84
2022/05/29 06:09:29;;;;;;;12.53;3.00;;;10.50;99.90;;;;;;4861300;29;20071;-83
2022/05/29 06:11:55;;;;;;;10.30;2.90;;;10.50;99.90;;;;;;4843217;29;20040;-84
2022/05/29 06:14:21;;;;;;;8.37;3.10;;;10.40;99.90;;;;;;4856264;29;20052;-84
2022/05/29 06:16:47;;;;;;;13.27;3.23;;;10.40;99.90;;;;;;4857263;29;20052;-84
2022/05/29 06:19:13;;;;;;;18.97;3.57;;;10.30;99.90;;;;;;4863078;29;20048;-83
2022/05/29 06:21:38;;;;;;;11.87;3.07;;;10.30;99.90;;;;;;4856997;29;20041;-84
2022/05/29 06:24:05;;;;;;;9.43;3.50;;;10.30;99.90;;;;;;4845032;29;20471;-86
2022/05/29 06:26:31;;;;;;;10.30;3.60;;;10.20;99.90;;;;;;4890379;29;20376;-84
2022/05/29 06:28:56;;;;;;;10.83;2.70;;;10.20;99.90;;;;;;4862852;29;20051;-84
2022/05/29 06:31:22;;;;;;;11.27;3.20;;;10.20;99.90;;;;;;4864181;29;20133;-84
2022/05/29 06:33:48;;;;;;;18.43;3.47;;;10.20;99.90;;;;;;4866375;29;20044;-84
2022/05/29 06:36:17;;;;;;;17.37;3.27;;;10.10;99.90;;;;;;4860180;29;20041;-84
2022/05/29 06:38:45;;;;;;;7.43;2.93;;;10.30;99.90;;;;;;4879037;29;20048;-84
2022/05/29 06:41:13;;;;;;;14.00;3.13;;;10.30;99.90;;;;;;4873885;29;20045;-85
2022/05/29 06:43:39;;;;;;;15.27;3.07;;;10.30;99.90;;;;;;4878486;29;20037;-85
2022/05/29 06:46:07;;;;;;;12.43;3.50;;;10.30;99.90;;;;;;4856522;29;20060;-84
2022/05/29 06:48:35;;;;;;;14.17;3.40;;;10.40;99.90;;;;;;4878174;29;20131;-84
2022/05/29 06:51:09;;;;;;;14.33;3.23;;;10.50;99.90;;;;;;4860471;29;20144;-84
2022/05/29 06:53:35;;;;;;;14.43;3.90;;;10.50;99.90;;;;;;4862627;29;20084;-83
2022/05/29 06:56:02;;;;;;;12.20;2.83;;;10.50;99.90;;;;;;4874401;29;20097;-84
2022/05/29 06:58:28;;;;;;;10.07;2.77;;;10.50;99.90;;;;;;4859215;29;20041;-84
2022/05/29 07:09:07;;;;;;;14.43;3.17;;;10.60;99.90;;;;;;4869669;29;20128;-84
2022/05/29 07:11:38;;;;;;;20.77;3.10;;;10.60;99.90;;;;;;4882776;29;20746;-83
2022/05/29 07:14:05;;;;;;;12.77;3.20;;;10.60;99.90;;;;;;4871674;29;20491;-84
2022/05/29 07:16:35;;;;;;;11.80;3.17;;;10.60;99.90;;;;;;4866545;29;20116;-84
2022/05/29 07:19:01;;;;;;;13.10;3.00;;;10.70;99.90;;;;;;4856112;29;20049;-83
2022/05/29 07:21:33;;;;;;;11.70;3.13;;;10.60;99.90;;;;;;4872085;29;20064;-82
2022/05/29 07:23:59;;;;;;;11.88;3.00;;;10.60;99.90;;;;;;4870956;29;20032;-83
2022/05/29 07:26:25;;;;;;;12.83;3.47;;;10.70;99.90;;;;;;4878294;29;20076;-84
2022/05/29 07:28:51;;;;;;;12.10;3.07;;;10.70;99.90;;;;;;4843844;29;20098;-83
2022/05/29 07:31:17;;;;;;;8.20;2.67;;;10.60;99.90;;;;;;4859221;29;20100;-83
2022/05/29 07:33:43;;;;;;;12.80;2.80;;;10.70;99.90;;;;;;4864190;29;20124;-83
2022/05/29 07:36:11;;;;;;;17.20;3.23;;;10.70;99.90;;;;;;4846943;29;20052;-83
2022/05/29 07:38:38;;;;;;;7.70;2.70;;;10.70;99.90;;;;;;4846987;29;20049;-83
2022/05/29 07:43:18;;;;;;;6.70;2.63;;;10.60;99.90;;;;;;4858799;29;20065;-82
2022/05/29 07:43:52;;;;;;;10.67;2.13;;;10.70;99.90;;;;;;4874948;29;20065;-81
2022/05/29 07:46:18;;;;;;;7.07;2.47;;;10.60;99.90;;;;;;4877068;29;20049;-83
2022/05/29 07:48:43;;;;;;;14.33;2.60;;;10.70;99.90;;;;;;4861825;29;20124;-83
2022/05/29 07:51:10;;;;;;;13.50;3.37;;;10.70;99.90;;;;;;4845935;29;20556;-83
2022/05/29 07:53:37;;;;;;;13.17;2.73;;;10.80;99.90;;;;;;4842992;29;20045;-83
2022/05/29 07:56:03;;;;;;;13.40;2.97;;;10.80;99.90;;;;;;4862200;29;20044;-84
2022/05/29 07:58:29;;;;;;;14.93;3.70;;;10.90;99.90;;;;;;4844852;29;20045;-83
2022/05/29 08:00:55;;;;;;;12.57;2.80;;;10.90;99.90;;;;;;4849082;29;20411;-83
2022/05/29 08:03:22;;;;;;;8.43;3.03;;;10.90;99.90;;;;;;4863141;29;20125;-82
2022/05/29 08:05:51;;;;;;;9.23;3.37;;;10.90;99.90;;;;;;4862529;29;20060;-82
2022/05/29 08:08:18;;;;;;;10.00;2.33;;;10.90;99.90;;;;;;4867532;29;20045;-82
2022/05/29 08:10:45;;;;;;;6.33;2.43;;;10.90;99.90;;;;;;4853371;29;20513;-82
2022/05/29 08:13:11;;;;;;;10.30;2.50;;;10.80;99.90;;;;;;4857402;29;20533;-81
2022/05/29 08:15:37;;;;;;;10.97;2.40;;;10.80;99.90;;;;;;4870964;29;20101;-81
2022/05/29 08:18:06;;;;;;;9.60;1.83;;;10.70;99.90;;;;;;4859360;29;20109;-82
2022/05/29 08:20:33;;;;;;;10.37;2.10;;;10.70;99.90;;;;;;4852977;29;20075;-81
2022/05/29 08:22:59;;;;;;;8.03;1.70;;;10.70;99.90;;;;;;4856107;29;20049;-82
2022/05/29 08:30:54;;;;;;;7.53;2.20;;;10.70;99.90;;;;;;4852765;29;20228;-83
2022/05/29 08:33:29;;;;;;;5.47;1.77;;;10.80;99.90;;;;;;4850211;29;20399;-84
2022/05/29 08:36:06;;;;;;;11.13;2.00;;;10.80;99.90;;;;;;4875017;29;20037;-82
2022/05/29 08:38:33;;;;;;;6.00;1.87;;;10.90;99.90;;;;;;4875395;29;20044;-82
2022/05/29 08:41:02;;;;;;;5.47;1.57;;;11.00;99.90;;;;;;4877649;29;20076;-82
2022/05/29 08:43:41;;;;;;;8.90;1.90;;;11.10;99.90;;;;;;4861015;29;20068;-83
2022/05/29 08:46:15;;;;;;;9.43;2.30;;;11.10;99.90;;;;;;4881728;29;20080;-83
2022/05/29 08:48:40;;;;;;;7.43;2.43;;;11.20;99.90;;;;;;4871802;29;20040;-84
2022/05/29 08:51:34;;;;;;;9.80;2.00;;;11.20;99.90;;;;;;4874846;29;20049;-83
2022/05/29 08:54:10;;;;;;;7.70;2.00;;;11.20;99.90;;;;;;4873129;29;20072;-81
2022/05/29 08:56:42;;;;;;;4.50;1.60;;;11.10;99.90;;;;;;4876989;29;20065;-80
2022/05/29 08:59:21;;;;;;;4.88;1.20;;;11.10;99.90;;;;;;4854348;29;20186;-84
2022/05/29 09:02:22;;;;;;;7.60;1.47;;;11.10;99.90;;;;;;4866449;29;20049;-82
2022/05/29 09:05:27;;;;;;;3.57;1.20;;;11.10;99.90;;;;;;4871074;29;20045;-83
2022/05/29 09:07:57;;;;;;;4.33;1.40;;;11.10;99.90;;;;;;4869832;29;20444;-82
2022/05/29 09:10:34;;;;;;;2.17;1.00;;;11.10;99.90;;;;;;4875425;29;20064;-82
2022/05/29 09:13:04;;;;;;;3.97;1.33;;;11.10;99.90;;;;;;4862259;29;20044;-82
2022/05/29 09:15:36;;;;;;;5.00;1.40;;;11.10;99.90;;;;;;4856959;29;20041;-83
2022/05/29 09:18:11;;;;;;;2.77;1.20;;;11.00;99.90;;;;;;4863049;29;20135;-81
2022/05/29 09:20:52;;;;;;;5.10;1.20;;;11.00;99.90;;;;;;4861977;29;20041;-82
2022/05/29 09:23:25;;;;;;;5.87;1.23;;;10.90;99.90;;;;;;4875653;29;20048;-83
2022/05/29 09:25:52;;;;;;;6.87;2.00;;;10.90;99.90;;;;;;4877613;29;20052;-84
2022/05/29 09:28:27;;;;;;;4.97;1.40;;;10.90;99.90;;;;;;4853930;29;20061;-83
2022/05/29 09:30:54;;;;;;;6.23;1.37;;;10.90;99.90;;;;;;4835288;29;20037;-82
2022/05/29 09:33:25;;;;;;;7.17;1.70;;;10.90;99.90;;;;;;4862117;29;20045;-83
2022/05/29 09:36:27;;;;;;;5.53;1.70;;;10.90;99.90;;;;;;4864609;29;20046;-83
2022/05/29 09:39:33;;;;;;;6.38;1.60;;;10.90;99.90;;;;;;4859437;29;20048;-84
2022/05/29 09:42:12;;;;;;;9.23;1.63;;;11.00;99.90;;;;;;4854229;29;20403;-83
2022/05/29 09:44:37;;;;;;;12.03;2.23;;;11.00;99.90;;;;;;4876447;29;20062;-83
2022/05/29 09:50:07;;;;;;;6.00;1.70;;;11.10;99.90;;;;;;4880127;29;20184;-83
2022/05/29 09:52:41;;;;;;;8.80;1.73;;;11.10;99.90;;;;;;4851048;29;20041;-82
2022/05/29 09:55:21;;;;;;;4.80;2.03;;;11.20;99.90;;;;;;4864087;29;20128;-83
2022/05/29 09:57:51;;;;;;;6.40;1.93;;;11.20;99.90;;;;;;4879835;29;20395;-82
2022/05/29 10:00:26;;;;;;;5.13;1.40;;;11.30;99.90;;;;;;4864803;29;20052;-84
2022/05/29 10:02:52;;;;;;;7.60;1.60;;;11.40;99.90;;;;;;4862257;29;20120;-84
2022/05/29 10:05:33;;;;;;;5.77;1.67;;;11.50;99.90;;;;;;4857046;29;20047;-82
2022/05/29 10:08:15;;;;;;;6.17;2.07;;;11.60;99.90;;;;;;4876545;29;20050;-83
2022/05/29 10:10:41;;;;;;;6.93;1.93;;;11.70;99.90;;;;;;4876337;29;20048;-81
2022/05/29 10:13:07;;;;;;;8.70;1.73;;;11.90;99.90;;;;;;4879983;29;20037;-85
2022/05/29 10:15:36;;;;;;;4.93;1.50;;;11.90;99.90;;;;;;4877896;29;20376;-83
2022/05/29 10:18:10;;;;;;;8.13;1.40;;;12.00;99.90;;;;;;4883434;29;20049;-82
2022/05/29 10:20:42;;;;;;;5.20;1.50;;;11.90;99.90;;;;;;4890685;29;20044;-82
2022/05/29 10:23:11;;;;;;;3.58;1.40;;;11.70;99.90;;;;;;4896144;29;20044;-81
2022/05/29 10:25:59;;;;;;;5.83;1.60;;;11.40;99.90;;;;;;4864850;29;20037;-83
2022/05/29 10:28:30;;;;;;;5.57;1.40;;;11.30;99.90;;;;;;4882222;29;20052;-83
2022/05/29 10:30:59;;;;;;;6.95;1.70;;;11.20;99.90;;;;;;4875432;29;20442;-83
2022/05/29 10:33:28;;;;;;;4.47;1.63;;;11.20;99.90;;;;;;4881742;29;20394;-82
2022/05/29 10:36:16;;;;;;;4.93;1.80;;;11.20;99.90;;;;;;4870703;29;20041;-83
2022/05/29 10:38:43;;;;;;;6.23;1.60;;;11.30;99.90;;;;;;4876339;29;20044;-82
2022/05/29 10:41:12;;;;;;;9.00;2.10;;;11.30;99.90;;;;;;4881104;29;20044;-83
2022/05/29 10:43:47;;;;;;;6.80;1.93;;;11.40;99.90;;;;;;4872744;29;20040;-83
2022/05/29 10:46:25;;;;;;;5.90;1.70;;;11.50;99.90;;;;;;4866080;29;20049;-83
2022/05/29 10:49:10;;;;;;;3.50;1.77;;;11.70;99.90;;;;;;4867761;29;20694;-83
2022/05/29 10:51:38;;;;;;;5.80;1.90;;;11.90;99.90;;;;;;4865805;29;20056;-83
2022/05/29 10:54:09;;;;;;;7.73;2.00;;;12.10;99.90;;;;;;4889307;29;20131;-82
2022/05/29 10:56:54;;;;;;;12.02;2.58;;;12.10;99.90;;;;;;4894628;29;20044;-83
2022/05/29 10:59:56;;;;;;;4.70;2.00;;;12.00;99.90;;;;;;4863287;29;20052;-83
2022/05/29 11:05:51;;;;;;;6.07;1.80;;;12.00;99.90;;;;;;4877432;29;20056;-83
2022/05/29 11:08:35;;;;;;;7.53;1.90;;;11.90;99.90;;;;;;4868472;29;20486;-82
2022/05/29 11:11:26;;;;;;;7.47;1.73;;;11.80;99.90;;;;;;4892045;29;20041;-82
2022/05/29 11:14:19;;;;;;;7.37;1.93;;;11.60;99.90;;;;;;4870633;29;20108;-82
2022/05/29 11:16:54;;;;;;;6.60;2.00;;;11.50;99.90;;;;;;4886828;29;20090;-82
2022/05/29 11:19:49;;;;;;;9.27;2.23;;;11.50;99.90;;;;;;4865485;29;20450;-83
2022/05/29 11:22:17;;;;;;;10.40;2.33;;;11.50;99.90;;;;;;4874228;29;20036;-83
2022/05/29 11:24:55;;;;;;;5.90;1.80;;;11.50;99.90;;;;;;4878672;29;20060;-83
2022/05/29 11:27:32;;;;;;;4.73;1.50;;;11.50;99.90;;;;;;4876292;29;20127;-82
2022/05/29 11:30:14;;;;;;;6.00;1.70;;;11.60;99.90;;;;;;4887325;29;20037;-82
2022/05/29 11:33:05;;;;;;;7.15;1.95;;;11.70;99.90;;;;;;4867240;29;20099;-81
2022/05/29 11:35:34;;;;;;;5.50;2.33;;;11.70;99.90;;;;;;4886284;29;20052;-82
2022/05/29 11:38:32;;;;;;;6.30;2.10;;;11.90;99.90;;;;;;4881592;29;20434;-83
2022/05/29 11:41:04;;;;;;;6.93;2.00;;;12.10;99.90;;;;;;4877810;29;20037;-81
2022/05/29 11:43:42;;;;;;;5.47;2.27;;;12.10;99.90;;;;;;4874822;29;20052;-82
2022/05/29 11:52:12;;;;;;;8.00;1.80;;;11.90;99.90;;;;;;4886574;29;20052;-82
2022/05/29 11:54:48;;;;;;;7.67;1.63;;;11.70;99.90;;;;;;4865450;29;20127;-82
2022/05/29 11:57:22;;;;;;;4.57;1.40;;;11.50;99.90;;;;;;4885880;29;20052;-82
2022/05/29 12:00:09;;;;;;;5.80;1.73;;;11.30;99.90;;;;;;4868923;29;20443;-82
2022/05/29 12:02:44;;;;;;;8.37;1.63;;;11.40;99.90;;;;;;4862971;29;20049;-83
2022/05/29 12:05:28;;;;;;;7.97;2.00;;;11.40;99.90;;;;;;4886604;29;20093;-82
2022/05/29 12:08:08;;;;;;;4.03;1.40;;;11.40;99.90;;;;;;4865544;29;20055;-81
2022/05/29 12:10:56;;;;;;;6.33;1.70;;;11.50;99.90;;;;;;4873959;29;20051;-81
2022/05/29 12:13:27;;;;;;;6.97;1.67;;;11.50;99.90;;;;;;4881445;29;20044;-84
2022/05/29 12:15:59;;;;;;;6.78;2.17;;;11.50;99.90;;;;;;4879502;29;20395;-82
2022/05/29 12:18:33;;;;;;;6.20;1.60;;;11.60;99.90;;;;;;4879728;29;20064;-84
2022/05/29 12:21:01;;;;;;;8.33;1.77;;;11.70;99.90;;;;;;4860930;29;20403;-82
2022/05/29 12:23:26;;;;;;;6.03;1.53;;;11.80;99.90;;;;;;4874211;29;20491;-84
2022/05/29 12:26:08;;;;;;;6.40;2.00;;;11.80;99.90;;;;;;4871559;29;20135;-84
2022/05/29 12:28:50;;;;;;;4.87;1.20;;;11.90;99.90;;;;;;4857950;29;20119;-85
2022/05/29 12:31:26;;;;;;;9.02;2.30;;;12.10;99.90;;;;;;4873927;29;20139;-83
2022/05/29 12:33:52;;;;;;;7.27;2.17;;;12.20;99.90;;;;;;4870580;29;20117;-84
2022/05/29 12:36:27;;;;;;;7.30;1.40;;;12.30;99.90;;;;;;4865455;29;20458;-83
2022/05/29 12:39:13;;;;;;;5.97;1.70;;;12.40;99.90;;;;;;4870100;29;20072;-84
2022/05/29 12:41:49;;;;;;;10.37;2.17;;;12.40;99.90;;;;;;4864510;29;20097;-82
2022/05/29 12:44:34;;;;;;;6.33;1.90;;;12.40;99.90;;;;;;4863016;29;20095;-83
2022/05/29 12:47:11;;;;;;;6.97;2.10;;;12.40;99.90;;;;;;4864464;29;20052;-83
2022/05/29 12:49:43;;;;;;;12.40;2.33;;;12.40;99.90;;;;;;4877674;29;20055;-85
2022/05/29 12:52:31;;;;;;;6.45;1.52;;;12.30;99.90;;;;;;4862891;29;20082;-83
2022/05/29 12:55:16;;;;;;;8.60;1.77;;;12.30;99.90;;;;;;4869879;29;20056;-83
2022/05/29 12:58:06;;;;;;;8.63;1.90;;;12.10;99.90;;;;;;4870724;29;20495;-82
2022/05/29 13:00:44;;;;;;;8.53;2.07;;;12.10;99.90;;;;;;4871920;29;20045;-83
2022/05/29 13:03:35;;;;;;;7.37;1.90;;;11.90;99.90;;;;;;4878732;29;20044;-82
2022/05/29 13:06:10;;;;;;;9.33;2.13;;;11.70;99.90;;;;;;4863224;29;20559;-82
2022/05/29 13:08:47;;;;;;;5.87;2.00;;;11.40;99.90;;;;;;4883905;29;20422;-81
2022/05/29 13:11:20;;;;;;;7.60;2.00;;;11.30;99.90;;;;;;4869308;29;20061;-81
2022/05/29 13:13:47;;;;;;;7.10;1.90;;;11.20;99.90;;;;;;4878445;29;20052;-82
2022/05/29 13:16:23;;;;;;;7.27;1.70;;;11.20;99.90;;;;;;4852129;29;20091;-82
2022/05/29 13:19:17;;;;;;;5.60;1.80;;;11.20;99.90;;;;;;4870170;29;20060;-81
2022/05/29 13:22:00;;;;;;;4.20;1.63;;;11.20;99.90;;;;;;4884526;29;20054;-82
2022/05/29 13:24:33;;;;;;;4.50;2.00;;;11.20;99.90;;;;;;4873711;29;20108;-82
2022/05/29 13:27:17;;;;;;;5.23;1.60;;;11.20;99.90;;;;;;4868755;29;20409;-82
2022/05/29 13:29:54;;;;;;;6.30;1.70;;;11.30;99.90;;;;;;4880724;29;20096;-82
2022/05/29 13:32:33;;;;;;;6.53;1.83;;;11.40;99.90;;;;;;4868616;29;20402;-82
2022/05/29 13:35:22;;;;;;;7.43;2.13;;;11.50;99.90;;;;;;4841537;29;20045;-82
2022/05/29 13:37:49;;;;;;;4.40;1.67;;;11.60;99.90;;;;;;4877145;29;20049;-83
2022/05/29 13:40:21;;;;;;;7.97;1.80;;;11.80;99.90;;;;;;4854857;29;20053;-84
2022/05/29 13:42:49;;;;;;;;;;;11.90;99.90;;;;;;4870105;29;20044;-83
2022/05/29 13:45:23;;;;;;;7.63;2.30;;;11.90;99.90;;;;;;4868095;29;19942;-83
2022/05/29 13:48:13;;;;;;;9.10;2.10;;;12.00;99.90;;;;;;4863102;29;20049;-84